createdAt,value
2022-11-05T00:01:38.068Z,19.26
2022-11-05T00:06:30.876Z,19.24
2022-11-05T00:11:23.704Z,19.24
2022-11-05T00:16:16.661Z,19.2
2022-11-05T00:21:11.575Z,19.21
2022-11-05T00:26:04.185Z,19.16
2022-11-05T00:30:57.114Z,19.16
2022-11-05T00:35:50.143Z,19.14
2022-11-05T00:40:45.056Z,19.14
2022-11-05T00:45:37.594Z,19.11
2022-11-05T00:50:30.563Z,19.1
2022-11-05T00:55:23.347Z,19.11
2022-11-05T01:00:16.196Z,19.08
2022-11-05T01:05:09.322Z,19.07
2022-11-05T01:10:02.419Z,19.05
2022-11-05T01:14:55.499Z,19.05
2022-11-05T01:19:50.464Z,19.05
2022-11-05T01:24:42.980Z,19.03
2022-11-05T01:29:36.120Z,19.01
2022-11-05T01:34:31.121Z,19.01
2022-11-05T01:39:23.576Z,18.99
2022-11-05T01:44:16.418Z,18.98
2022-11-05T01:49:09.601Z,18.96
2022-11-05T01:54:02.378Z,18.96
2022-11-05T01:58:55.377Z,18.95
2022-11-05T02:03:48.168Z,18.93
2022-11-05T02:08:41.217Z,18.92
2022-11-05T02:13:39.672Z,18.9
2022-11-05T02:18:31.509Z,18.91
2022-11-05T02:23:24.419Z,18.87
2022-11-05T02:28:17.562Z,18.86
2022-11-05T02:33:10.898Z,18.85
2022-11-05T02:38:03.587Z,18.85
2022-11-05T02:42:56.643Z,18.83
2022-11-05T02:47:49.900Z,18.83
2022-11-05T02:57:36.060Z,18.84
2022-11-05T03:02:29.226Z,18.82
2022-11-05T03:07:22.164Z,18.79
2022-11-05T03:12:17.173Z,18.81
2022-11-05T03:17:09.674Z,18.8
2022-11-05T03:22:02.761Z,18.77
2022-11-05T03:26:49.986Z,18.78
2022-11-05T03:31:43.670Z,18.77
2022-11-05T03:36:37.602Z,18.72
2022-11-05T03:41:30.613Z,18.72
2022-11-05T03:46:23.765Z,18.73
2022-11-05T03:51:16.594Z,18.7
2022-11-05T03:56:09.669Z,18.69
2022-11-05T04:01:02.565Z,18.69
2022-11-05T04:05:55.784Z,18.68
2022-11-05T04:10:48.767Z,18.68
2022-11-05T04:15:41.714Z,18.67
2022-11-05T04:20:34.711Z,18.66
2022-11-05T04:25:27.796Z,18.67
2022-11-05T04:30:20.926Z,18.66
2022-11-05T04:35:13.930Z,18.62
2022-11-05T04:40:06.672Z,18.6
2022-11-05T04:44:59.572Z,18.61
2022-11-05T04:49:52.558Z,18.61
2022-11-05T04:54:45.543Z,18.6
2022-11-05T04:59:38.530Z,18.58
2022-11-05T05:04:31.689Z,18.6
2022-11-05T05:09:24.601Z,18.58
2022-11-05T05:14:17.655Z,18.62
2022-11-05T05:19:10.760Z,18.66
2022-11-05T05:24:03.932Z,18.75
2022-11-05T05:28:56.968Z,18.85
2022-11-05T05:33:50.065Z,18.91
2022-11-05T05:38:43.247Z,18.97
2022-11-05T05:43:36.250Z,19.1
2022-11-05T05:48:31.530Z,19.25
2022-11-05T05:53:24.200Z,19.26
2022-11-05T05:58:17.378Z,19.3
2022-11-05T06:07:58.539Z,19.35
2022-11-05T06:12:52.904Z,19.77
2022-11-05T06:17:45.982Z,19.71
2022-11-05T06:22:39.129Z,19.77
2022-11-05T06:27:32.438Z,19.81
2022-11-05T06:32:25.320Z,19.8
2022-11-05T06:37:18.335Z,20.03
2022-11-05T06:42:18.181Z,20.1
2022-11-05T06:47:04.788Z,20.2
2022-11-05T06:51:57.796Z,20.22
2022-11-05T06:56:51.013Z,20.34
2022-11-05T07:01:44.476Z,20.55
2022-11-05T07:06:37.456Z,20.64
2022-11-05T07:11:30.735Z,20.77
2022-11-05T07:16:23.908Z,20.8
2022-11-05T07:21:17.156Z,20.84
2022-11-05T07:26:10.133Z,20.91
2022-11-05T07:31:03.043Z,20.88
2022-11-05T07:35:56.137Z,20.89
2022-11-05T07:40:49.072Z,20.89
2022-11-05T07:45:44.273Z,20.89
2022-11-05T07:50:36.769Z,20.85
2022-11-05T07:55:29.929Z,20.91
2022-11-05T08:00:22.982Z,20.8
2022-11-05T08:05:16.012Z,20.76
2022-11-05T08:15:02.073Z,20.73
2022-11-05T08:19:55.207Z,20.71
2022-11-05T08:24:48.423Z,20.65
2022-11-05T08:29:41.375Z,20.72
2022-11-05T08:34:34.461Z,20.8
2022-11-05T08:39:27.358Z,20.85
2022-11-05T08:44:20.531Z,20.9
2022-11-05T08:49:13.741Z,20.84
2022-11-05T08:54:06.614Z,20.86
2022-11-05T08:58:59.181Z,20.9
2022-11-05T09:03:52.096Z,20.88
2022-11-05T09:08:44.898Z,20.87
2022-11-05T09:13:37.678Z,20.83
2022-11-05T09:18:32.468Z,20.81
2022-11-05T09:23:25.113Z,20.68
2022-11-05T09:28:18.233Z,20.64
2022-11-05T09:33:11.233Z,20.6
2022-11-05T09:38:03.735Z,20.56
2022-11-05T09:42:56.635Z,20.57
2022-11-05T09:47:51.249Z,20.56
2022-11-05T09:52:43.799Z,20.52
2022-11-05T09:57:36.478Z,20.45
2022-11-05T10:02:29.787Z,20.45
2022-11-05T10:07:22.275Z,20.42
2022-11-05T10:12:15.220Z,20.46
2022-11-05T10:17:08.038Z,20.46
2022-11-05T10:22:06.396Z,20.41
2022-11-05T10:26:53.733Z,20.43
2022-11-05T10:31:46.535Z,20.43
2022-11-05T10:36:39.501Z,20.42
2022-11-05T10:41:32.307Z,20.38
2022-11-05T10:46:25.310Z,20.36
2022-11-05T10:51:18.395Z,20.36
2022-11-05T10:56:11.314Z,20.32
2022-11-05T11:01:04.882Z,20.27
2022-11-05T11:05:57.716Z,20.3
2022-11-05T11:10:50.780Z,20.33
2022-11-05T11:15:43.960Z,20.31
2022-11-05T11:20:37.007Z,20.32
2022-11-05T11:25:30.011Z,20.34
2022-11-05T11:30:22.989Z,20.39
2022-11-05T11:35:16.214Z,20.46
2022-11-05T11:40:10.185Z,20.48
2022-11-05T11:45:02.557Z,20.45
2022-11-05T11:49:55.553Z,20.48
2022-11-05T11:54:48.699Z,20.49
2022-11-05T12:00:06.997Z,20.58
2022-11-05T12:04:34.883Z,20.68
2022-11-05T12:09:27.892Z,20.72
2022-11-05T12:14:20.933Z,20.74
2022-11-05T12:19:14.112Z,20.64
2022-11-05T12:24:07.224Z,20.68
2022-11-05T12:29:24.094Z,20.64
2022-11-05T12:33:53.601Z,20.59
2022-11-05T12:38:46.653Z,20.56
2022-11-05T12:43:39.679Z,20.56
2022-11-05T12:48:35.888Z,20.57
2022-11-05T12:53:25.689Z,20.56
2022-11-05T12:58:18.732Z,20.56
2022-11-05T13:03:11.903Z,20.54
2022-11-05T13:08:04.931Z,20.57
2022-11-05T13:12:58.123Z,20.56
2022-11-05T13:17:51.276Z,20.59
2022-11-05T13:22:44.470Z,20.57
2022-11-05T13:27:37.506Z,20.57
2022-11-05T13:32:30.456Z,20.56
2022-11-05T13:37:23.555Z,20.5
2022-11-05T13:42:16.590Z,20.52
2022-11-05T13:47:09.696Z,20.56
2022-11-05T13:52:02.756Z,20.45
2022-11-05T13:56:55.944Z,20.48
2022-11-05T14:01:49.141Z,20.43
2022-11-05T14:11:32.296Z,20.4
2022-11-05T14:16:26.169Z,20.42
2022-11-05T14:21:20.269Z,20.42
2022-11-05T14:26:13.312Z,20.38
2022-11-05T14:31:06.442Z,20.35
2022-11-05T14:35:59.481Z,20.34
2022-11-05T14:40:52.738Z,20.33
2022-11-05T14:45:45.587Z,20.33
2022-11-05T14:50:38.496Z,20.3
2022-11-05T14:55:31.572Z,20.3
2022-11-05T15:00:24.470Z,20.29
2022-11-05T15:05:17.503Z,20.24
2022-11-05T15:10:11.015Z,20.26
2022-11-05T15:15:03.376Z,20.24
2022-11-05T15:19:56.122Z,20.2
2022-11-05T15:24:49.183Z,20.16
2022-11-05T15:29:42.172Z,20.14
2022-11-05T15:34:35.191Z,20.12
2022-11-05T15:39:29.872Z,20.13
2022-11-05T15:44:21.412Z,20.1
2022-11-05T15:49:14.569Z,20.11
2022-11-05T15:54:28.872Z,20.04
2022-11-05T15:59:02.732Z,20.07
2022-11-05T16:03:57.354Z,20.05
2022-11-05T16:08:49.860Z,19.99
2022-11-05T16:13:43.064Z,20
2022-11-05T16:18:35.933Z,19.96
2022-11-05T16:23:28.732Z,19.96
2022-11-05T16:28:21.970Z,19.94
2022-11-05T16:33:15.148Z,19.93
2022-11-05T16:38:08.227Z,19.91
2022-11-05T16:43:03.265Z,19.91
2022-11-05T16:47:55.838Z,19.88
2022-11-05T16:52:48.930Z,19.84
2022-11-05T16:57:41.824Z,19.85
2022-11-05T17:02:34.808Z,19.8
2022-11-05T17:07:27.585Z,19.75
2022-11-05T17:12:15.841Z,19.77
2022-11-05T17:17:07.988Z,19.75
2022-11-05T17:22:02.222Z,19.73
2022-11-05T17:26:55.124Z,19.72
2022-11-05T17:31:48.126Z,19.67
2022-11-05T17:36:41.231Z,19.66
2022-11-05T17:41:34.294Z,19.64
2022-11-05T17:46:27.457Z,19.64
2022-11-05T17:51:20.564Z,19.64
2022-11-05T17:56:13.356Z,19.6
2022-11-05T18:01:06.599Z,19.59
2022-11-05T18:05:59.266Z,19.56
2022-11-05T18:10:54.316Z,19.55
2022-11-05T18:15:46.903Z,19.53
2022-11-05T18:20:34.037Z,19.51
2022-11-05T18:25:27.997Z,19.51
2022-11-05T18:30:22.254Z,19.47
2022-11-05T18:35:15.076Z,19.47
2022-11-05T18:40:08.159Z,19.47
2022-11-05T18:49:54.170Z,19.42
2022-11-05T18:54:47.155Z,19.4
2022-11-05T18:59:40.213Z,19.39
2022-11-05T19:04:33.368Z,19.38
2022-11-05T19:09:26.600Z,19.37
2022-11-05T19:19:07.304Z,19.34
2022-11-05T19:24:01.492Z,19.35
2022-11-05T19:28:54.533Z,19.34
2022-11-05T19:33:47.709Z,19.33
2022-11-05T19:38:40.756Z,19.32
2022-11-05T19:43:33.833Z,19.29
2022-11-05T19:48:26.935Z,19.3
2022-11-05T19:53:20.159Z,19.28
2022-11-05T19:58:13.417Z,19.27
2022-11-05T20:03:06.378Z,19.28
2022-11-05T20:07:59.557Z,19.26
2022-11-05T20:12:52.593Z,19.25
2022-11-05T20:17:45.656Z,19.23
2022-11-05T20:22:38.761Z,19.22
2022-11-05T20:27:31.747Z,19.22
2022-11-05T20:32:26.715Z,19.28
2022-11-05T20:37:19.288Z,19.22
2022-11-05T20:42:12.363Z,19.19
2022-11-05T20:47:05.416Z,19.17
2022-11-05T20:51:58.292Z,19.15
2022-11-05T20:56:51.524Z,19.14
2022-11-05T21:01:44.643Z,19.12
2022-11-05T21:06:37.510Z,19.11
2022-11-05T21:11:24.502Z,19.11
2022-11-05T21:16:21.533Z,19.09
2022-11-05T21:21:14.533Z,19.09
2022-11-05T21:26:09.421Z,19.08
2022-11-05T21:31:01.943Z,19.05
2022-11-05T21:35:54.914Z,19.04
2022-11-05T21:40:47.792Z,19.03
2022-11-05T21:45:40.684Z,19.01
2022-11-05T21:50:33.582Z,19
2022-11-05T21:55:26.116Z,18.97
2022-11-05T22:00:21.072Z,18.96
2022-11-05T22:05:13.568Z,18.94
2022-11-05T22:10:00.753Z,18.93
2022-11-05T22:14:54.483Z,18.93
2022-11-05T22:19:48.687Z,18.91
2022-11-05T22:24:41.784Z,18.88
2022-11-05T22:29:34.780Z,18.87
2022-11-05T22:34:27.875Z,18.86
2022-11-05T22:39:20.683Z,18.86
2022-11-05T22:44:13.638Z,18.83
2022-11-05T22:49:06.615Z,18.81
2022-11-05T22:53:59.676Z,18.81
2022-11-05T22:58:52.665Z,18.8
2022-11-05T23:03:45.636Z,18.77
2022-11-05T23:08:38.507Z,18.77
2022-11-05T23:13:31.490Z,18.74
2022-11-05T23:18:24.450Z,18.76
2022-11-05T23:23:17.700Z,18.72
2022-11-05T23:28:10.839Z,18.71
2022-11-05T23:33:03.512Z,18.7
2022-11-05T23:37:56.414Z,18.67
2022-11-05T23:42:49.358Z,18.66
2022-11-05T23:47:36.461Z,18.68
2022-11-05T23:52:30.338Z,18.66
2022-11-05T23:57:24.357Z,18.63
